Aviation Digital Data Service (ADDS)

Output produced by METARs form (1907 UTC 24 April 2017)
found at http://aviationweather.gov/adds/metars/
 
KRUT 241720Z 2418/2518 35006KT P6SM SKC 
     FM250100 VRB04KT P6SM SKC 
     FM250400 12005KT P6SM FEW045 SCT250 
     FM251000 13008KT P6SM VCSH SCT045 BKN100 
     FM251300 14010G18KT P6SM VCSH SCT025 OVC040 
     FM251600 14013G22KT P6SM -SHRA OVC025